Ana Sayfa
METAR-TAF:

METAR-TAF

Havaalanları :

Zagreb Havalimanı

Zagreb, Hırvatistan

Enlem: 45-44N, Boylam: 016-04E, yükseklik: 106 m

Güncel hava durumu gözlemi

Rapor saat 17:30 UTC de 13 dakika önce yapıldı.
Rüzgar doğu/kuzeydoğudan 5 kt, kuzey/kuzeydoğu ve doğu/güneydoğu arasında değişken
Sıcaklık 15°C
Nem 51%
Basınç 1025 hPa
Görüş mesafesi 10 km veya daha fazla
1500 m altında bulut yok ve kümülonimbus yok

METAR: LDZA 191730Z 06005KT 030V110 CAVOK 15/05 Q1025 NOSIG

Saat: 19:43 (17:43 UTC)

Tahmin

Rapor saat 11:25 UTC de 6 saat ve 18 dakika önce yapıldı.
Ayın 19'si saat 12 UTC'den ayın 20'si saat 12 UTC'ye kadar geçerli Tahmin
Rüzgar doğu/kuzeydoğudan 12 kt
Görüş mesafesi 10 km veya daha fazla
1500 m altında bulut yok ve kümülonimbus yok
Dönüşüyor
ayın 19'si saat 20 UTC'den ayın 19'si saat 22 UTC'ye kadar
Rüzgar kuzey/kuzeydoğudan 5 kt

TAF: LDZA 191125Z 1912/2012 06012KT CAVOK TX19/1912Z TN05/2005Z BECMG 1920/1922 02005KT

4.000'den fazla havaalanı için hava durumu gözlemleri ve tahminleri (METAR ve TAF raporları).

Kullanılabilir istasyonlar harita üzerinde sarı ve kırmızı noktalarla gösterilir.

İstasyonun adını görmek için fareyi noktanın üzerinde gezdirin.

Sonrasında hava gözlem ve tahminlerini görmek için tıklayın.

Haritayı değiştirmek için: yaklaştırmak için siyah artı işaretli yeşil düğmeye ve uzaklaştırmak için de eksi işaretli düğmeye hızla tıklayın; bitişik haritalar için yeşil okları kullanın.


METAR-TAF: